KHAO Airport (Butler Co Rgnl-Hogan Field) Information

FAA: HAO - ICAO: KHAO

KHAO Airport Location

State Ohio
County Butler
City Hamilton
KHAO Airport is 3 miles southeast of Hamilton, OH.
Latitude 39-21-49.5000N
Longitude 084-31-19.0000W
Elevation 633ft

KHAO Airport METARs

METAR KHAO 060653Z AUTO 00000KT 10SM CLR 24/23 A2991 RMK AO2 SLP124 T02390228 TSNO
Altimeter 29.91"
Temperature 23.9°C (75.0°F)
Wind 0° at 0KT
Clouds Skies are clear.
Visibility 10.0mi
Time observed: 2022-07-06T06:53:00Z

KHAO Airport Details

Status Operational
Activation December 1937
Ownership Public
Usage Public
Chart CINCINNATI
ATC on-site No
Beacon schedule sunset-sunrise
Beacon color clear green

KHAO Airport Contacts

Owner BUTLER COUNTY BD OF COMMISSIONERS
Owner address 2820 AIRPORT ROAD EAST, HAMILTON, OH 45015
Owner phone (513) 887-3412
Manager PERCIVAL KANE, COO
Manager address CLEVELAND CLINIC E1-10, 9500 EUCLID AVE, CLEVELAND, OH 44195
Manager phone 216-317-9012

KHAO Airport (Butler Co Rgnl-Hogan Field) Radio Frequencies

KHAO (Airport) Radio Frequencies

UNICOM 123.05
Common traffic advisory frequency (CTAF) 123.05